KABY/ABY METAR and TAF weather

Enter ICAO airport designator
Station Type Date Time Source
KABY METAR 2019/06/16 11:53 UTC NOAA

KABY 161153Z 00000KT 9SM CLR 23/21 A3008 RMK AO2 SLP183 T02330206 10239 20211 53015


Station Type Date Time Source
KABY Decoded METAR 2019/06/16 11:53 UTC NOAA

ALBANY SOUTHWEST GEORGIA, GA, United States (KABY) 31-32N 084-12W 58M
Jun 16, 2019 - 07:53 AM EDT / 2019.06.16 1153 UTC
Wind: Calm:0
Visibility: 9 mile(s):0
Sky conditions: clear
Temperature: 73.9 F (23.3 C)
Dew Point: 69.1 F (20.6 C)
Relative Humidity: 84%
Pressure (altimeter): 30.08 in. Hg (1018 hPa)
Pressure tendency: 0.04 inches (1.5 hPa) higher than three hours ago
ob: KABY 161153Z 00000KT 9SM CLR 23/21 A3008 RMK AO2 SLP183 T02330206 10239 20211 53015
cycle: 12

Station Type Date Time Source
KABY TAF 2019/06/16 12:39 UTC NOAA

TAF KABY 161136Z 1612/1712 VRB05KT P6SM FEW070 SCT250

Example: see airport list